sensor_id;sensor_type;location;lat;lon;timestamp;temperature;humidity
10722;DHT22;5412;59.450;18.124;2022-12-05T00:00:57;0.20;99.90
10722;DHT22;5412;59.450;18.124;2022-12-05T00:03:24;0.30;99.90
10722;DHT22;5412;59.450;18.124;2022-12-05T00:05:50;0.30;99.90
10722;DHT22;5412;59.450;18.124;2022-12-05T00:08:16;0.30;99.90
10722;DHT22;5412;59.450;18.124;2022-12-05T00:10:42;0.30;99.90
10722;DHT22;5412;59.450;18.124;2022-12-05T00:13:08;0.10;99.90
10722;DHT22;5412;59.450;18.124;2022-12-05T00:15:38;-0.10;99.90
10722;DHT22;5412;59.450;18.124;2022-12-05T00:18:05;0.10;99.90
10722;DHT22;5412;59.450;18.124;2022-12-05T00:20:31;0.10;99.90
10722;DHT22;5412;59.450;18.124;2022-12-05T00:22:57;0.00;99.90
10722;DHT22;5412;59.450;18.124;2022-12-05T00:25:23;0.10;99.90
10722;DHT22;5412;59.450;18.124;2022-12-05T00:27:48;0.20;99.90
10722;DHT22;5412;59.450;18.124;2022-12-05T00:30:14;0.30;99.90
10722;DHT22;5412;59.450;18.124;2022-12-05T00:32:39;0.40;99.90
10722;DHT22;5412;59.450;18.124;2022-12-05T00:35:05;0.40;99.90
10722;DHT22;5412;59.450;18.124;2022-12-05T00:37:31;0.50;99.90
10722;DHT22;5412;59.450;18.124;2022-12-05T00:39:57;0.40;99.90
10722;DHT22;5412;59.450;18.124;2022-12-05T00:42:22;0.50;99.90
10722;DHT22;5412;59.450;18.124;2022-12-05T00:44:48;0.40;99.90
10722;DHT22;5412;59.450;18.124;2022-12-05T00:47:15;0.50;99.90
10722;DHT22;5412;59.450;18.124;2022-12-05T00:49:40;0.60;99.90
10722;DHT22;5412;59.450;18.124;2022-12-05T00:52:06;0.70;99.90
10722;DHT22;5412;59.450;18.124;2022-12-05T00:54:32;0.70;99.90
10722;DHT22;5412;59.450;18.124;2022-12-05T00:56:57;0.80;99.90
10722;DHT22;5412;59.450;18.124;2022-12-05T00:59:23;0.70;99.90
10722;DHT22;5412;59.450;18.124;2022-12-05T01:01:50;0.70;99.90
10722;DHT22;5412;59.450;18.124;2022-12-05T01:04:21;0.80;99.90
10722;DHT22;5412;59.450;18.124;2022-12-05T01:06:47;0.60;99.90
10722;DHT22;5412;59.450;18.124;2022-12-05T01:09:15;0.70;99.90
10722;DHT22;5412;59.450;18.124;2022-12-05T01:11:42;0.70;99.90
10722;DHT22;5412;59.450;18.124;2022-12-05T01:14:09;0.70;99.90
10722;DHT22;5412;59.450;18.124;2022-12-05T01:16:36;0.70;99.90
10722;DHT22;5412;59.450;18.124;2022-12-05T01:19:10;0.80;99.90
10722;DHT22;5412;59.450;18.124;2022-12-05T01:21:35;0.70;99.90
10722;DHT22;5412;59.450;18.124;2022-12-05T01:24:01;0.90;99.90
10722;DHT22;5412;59.450;18.124;2022-12-05T01:26:27;0.90;99.90
10722;DHT22;5412;59.450;18.124;2022-12-05T01:28:53;1.10;99.90
10722;DHT22;5412;59.450;18.124;2022-12-05T01:31:23;1.10;99.90
10722;DHT22;5412;59.450;18.124;2022-12-05T01:33:50;1.10;99.90
10722;DHT22;5412;59.450;18.124;2022-12-05T01:36:16;0.90;99.90
10722;DHT22;5412;59.450;18.124;2022-12-05T01:38:43;0.90;99.90
10722;DHT22;5412;59.450;18.124;2022-12-05T01:41:14;1.00;99.90
10722;DHT22;5412;59.450;18.124;2022-12-05T01:44:04;0.90;99.90
10722;DHT22;5412;59.450;18.124;2022-12-05T01:46:33;1.10;99.90
10722;DHT22;5412;59.450;18.124;2022-12-05T01:51:37;1.20;99.90
10722;DHT22;5412;59.450;18.124;2022-12-05T01:54:04;1.20;99.90
10722;DHT22;5412;59.450;18.124;2022-12-05T01:56:31;1.10;99.90
10722;DHT22;5412;59.450;18.124;2022-12-05T01:58:58;1.30;99.90
10722;DHT22;5412;59.450;18.124;2022-12-05T02:01:24;1.30;99.90
10722;DHT22;5412;59.450;18.124;2022-12-05T02:03:52;1.30;99.90
10722;DHT22;5412;59.450;18.124;2022-12-05T02:06:21;1.30;99.90
10722;DHT22;5412;59.450;18.124;2022-12-05T02:08:47;1.30;99.90
10722;DHT22;5412;59.450;18.124;2022-12-05T02:11:13;1.20;99.90
10722;DHT22;5412;59.450;18.124;2022-12-05T02:25:45;1.40;99.90
10722;DHT22;5412;59.450;18.124;2022-12-05T02:30:58;1.40;99.90
10722;DHT22;5412;59.450;18.124;2022-12-05T02:33:34;1.40;99.90
10722;DHT22;5412;59.450;18.124;2022-12-05T02:44:30;1.40;99.90
10722;DHT22;5412;59.450;18.124;2022-12-05T02:46:58;1.40;99.90
10722;DHT22;5412;59.450;18.124;2022-12-05T02:49:29;1.30;99.90
10722;DHT22;5412;59.450;18.124;2022-12-05T02:51:57;1.30;99.90
10722;DHT22;5412;59.450;18.124;2022-12-05T02:54:27;1.30;99.90
10722;DHT22;5412;59.450;18.124;2022-12-05T02:56:54;1.10;99.90
10722;DHT22;5412;59.450;18.124;2022-12-05T02:59:21;0.90;99.90
10722;DHT22;5412;59.450;18.124;2022-12-05T03:01:47;0.80;99.90
10722;DHT22;5412;59.450;18.124;2022-12-05T03:04:14;0.90;99.90
10722;DHT22;5412;59.450;18.124;2022-12-05T03:06:48;0.90;99.90
10722;DHT22;5412;59.450;18.124;2022-12-05T03:09:27;1.00;99.90
10722;DHT22;5412;59.450;18.124;2022-12-05T03:14:35;0.90;99.90
10722;DHT22;5412;59.450;18.124;2022-12-05T03:17:08;0.90;99.90
10722;DHT22;5412;59.450;18.124;2022-12-05T03:22:33;1.00;99.90
10722;DHT22;5412;59.450;18.124;2022-12-05T03:25:02;1.00;99.90
10722;DHT22;5412;59.450;18.124;2022-12-05T03:30:20;1.30;99.90
10722;DHT22;5412;59.450;18.124;2022-12-05T03:38:06;1.00;99.90
10722;DHT22;5412;59.450;18.124;2022-12-05T03:40:51;1.10;99.90
10722;DHT22;5412;59.450;18.124;2022-12-05T03:43:28;1.10;99.90
10722;DHT22;5412;59.450;18.124;2022-12-05T03:46:20;1.10;99.90
10722;DHT22;5412;59.450;18.124;2022-12-05T03:51:25;1.20;99.90
10722;DHT22;5412;59.450;18.124;2022-12-05T03:53:58;0.90;99.90
10722;DHT22;5412;59.450;18.124;2022-12-05T03:56:49;0.70;99.90
10722;DHT22;5412;59.450;18.124;2022-12-05T03:59:38;0.80;99.90
10722;DHT22;5412;59.450;18.124;2022-12-05T04:02:10;1.00;99.90
10722;DHT22;5412;59.450;18.124;2022-12-05T04:04:53;1.10;99.90
10722;DHT22;5412;59.450;18.124;2022-12-05T04:07:22;1.00;99.90
10722;DHT22;5412;59.450;18.124;2022-12-05T04:09:56;1.10;99.90
10722;DHT22;5412;59.450;18.124;2022-12-05T04:12:27;1.20;99.90
10722;DHT22;5412;59.450;18.124;2022-12-05T04:14:57;1.20;99.90
10722;DHT22;5412;59.450;18.124;2022-12-05T04:20:20;1.10;99.90
10722;DHT22;5412;59.450;18.124;2022-12-05T04:23:06;1.00;99.90
10722;DHT22;5412;59.450;18.124;2022-12-05T04:25:50;1.10;99.90
10722;DHT22;5412;59.450;18.124;2022-12-05T04:28:40;1.10;99.90
10722;DHT22;5412;59.450;18.124;2022-12-05T04:31:13;1.10;99.90
10722;DHT22;5412;59.450;18.124;2022-12-05T04:33:44;1.10;99.90
10722;DHT22;5412;59.450;18.124;2022-12-05T04:38:47;1.00;99.90
10722;DHT22;5412;59.450;18.124;2022-12-05T04:41:33;1.10;99.90
10722;DHT22;5412;59.450;18.124;2022-12-05T04:44:05;1.10;99.90
10722;DHT22;5412;59.450;18.124;2022-12-05T04:46:33;1.00;99.90
10722;DHT22;5412;59.450;18.124;2022-12-05T04:49:00;0.70;99.90
10722;DHT22;5412;59.450;18.124;2022-12-05T04:51:30;0.80;99.90
10722;DHT22;5412;59.450;18.124;2022-12-05T04:54:03;0.70;99.90
10722;DHT22;5412;59.450;18.124;2022-12-05T04:56:33;0.60;99.90
10722;DHT22;5412;59.450;18.124;2022-12-05T04:58:59;0.40;99.90
10722;DHT22;5412;59.450;18.124;2022-12-05T05:01:37;0.60;99.90
10722;DHT22;5412;59.450;18.124;2022-12-05T05:04:27;0.60;99.90
10722;DHT22;5412;59.450;18.124;2022-12-05T05:06:54;0.80;99.90
10722;DHT22;5412;59.450;18.124;2022-12-05T05:09:20;0.80;99.90
10722;DHT22;5412;59.450;18.124;2022-12-05T05:11:46;1.00;99.90
10722;DHT22;5412;59.450;18.124;2022-12-05T05:14:12;0.90;99.90
10722;DHT22;5412;59.450;18.124;2022-12-05T05:16:40;0.90;99.90
10722;DHT22;5412;59.450;18.124;2022-12-05T05:19:08;0.70;99.90
10722;DHT22;5412;59.450;18.124;2022-12-05T05:21:37;0.60;99.90
10722;DHT22;5412;59.450;18.124;2022-12-05T05:24:04;0.70;99.90
10722;DHT22;5412;59.450;18.124;2022-12-05T05:26:33;0.70;99.90
10722;DHT22;5412;59.450;18.124;2022-12-05T05:28:59;0.70;99.90
10722;DHT22;5412;59.450;18.124;2022-12-05T05:31:25;0.70;99.90
10722;DHT22;5412;59.450;18.124;2022-12-05T05:33:53;0.90;99.90
10722;DHT22;5412;59.450;18.124;2022-12-05T05:36:20;0.80;99.90
10722;DHT22;5412;59.450;18.124;2022-12-05T05:38:48;1.00;99.90
10722;DHT22;5412;59.450;18.124;2022-12-05T05:43:42;1.10;99.90
10722;DHT22;5412;59.450;18.124;2022-12-05T05:46:09;1.10;99.90
10722;DHT22;5412;59.450;18.124;2022-12-05T05:48:35;1.20;99.90
10722;DHT22;5412;59.450;18.124;2022-12-05T05:51:03;1.20;99.90
10722;DHT22;5412;59.450;18.124;2022-12-05T05:53:29;1.30;99.90
10722;DHT22;5412;59.450;18.124;2022-12-05T05:55:55;1.30;99.90
10722;DHT22;5412;59.450;18.124;2022-12-05T05:58:21;1.20;99.90
10722;DHT22;5412;59.450;18.124;2022-12-05T06:00:46;1.20;99.90
10722;DHT22;5412;59.450;18.124;2022-12-05T06:03:12;1.40;99.90
10722;DHT22;5412;59.450;18.124;2022-12-05T06:05:38;1.00;99.90
10722;DHT22;5412;59.450;18.124;2022-12-05T06:08:04;0.70;99.90
10722;DHT22;5412;59.450;18.124;2022-12-05T06:10:30;0.30;99.90
10722;DHT22;5412;59.450;18.124;2022-12-05T06:12:56;0.40;99.90
10722;DHT22;5412;59.450;18.124;2022-12-05T06:15:23;0.30;99.90
10722;DHT22;5412;59.450;18.124;2022-12-05T06:17:49;0.50;99.90
10722;DHT22;5412;59.450;18.124;2022-12-05T06:20:14;0.50;99.90
10722;DHT22;5412;59.450;18.124;2022-12-05T06:22:40;0.70;99.90
10722;DHT22;5412;59.450;18.124;2022-12-05T06:25:06;0.80;99.90
10722;DHT22;5412;59.450;18.124;2022-12-05T06:27:32;0.60;99.90
10722;DHT22;5412;59.450;18.124;2022-12-05T06:29:58;0.40;99.90
10722;DHT22;5412;59.450;18.124;2022-12-05T06:32:24;0.40;99.90
10722;DHT22;5412;59.450;18.124;2022-12-05T06:34:50;0.40;99.90
10722;DHT22;5412;59.450;18.124;2022-12-05T06:37:15;0.50;99.90
10722;DHT22;5412;59.450;18.124;2022-12-05T06:39:41;0.70;99.90
10722;DHT22;5412;59.450;18.124;2022-12-05T06:42:07;0.70;99.90
10722;DHT22;5412;59.450;18.124;2022-12-05T06:44:32;0.80;99.90
10722;DHT22;5412;59.450;18.124;2022-12-05T06:46:58;0.90;99.90
10722;DHT22;5412;59.450;18.124;2022-12-05T06:49:24;0.90;99.90
10722;DHT22;5412;59.450;18.124;2022-12-05T06:51:54;1.10;99.90
10722;DHT22;5412;59.450;18.124;2022-12-05T06:54:20;1.50;99.90
10722;DHT22;5412;59.450;18.124;2022-12-05T06:56:45;1.10;99.90
10722;DHT22;5412;59.450;18.124;2022-12-05T06:59:11;1.00;99.90
10722;DHT22;5412;59.450;18.124;2022-12-05T07:01:37;1.00;99.90
10722;DHT22;5412;59.450;18.124;2022-12-05T07:04:04;1.00;99.90
10722;DHT22;5412;59.450;18.124;2022-12-05T07:06:31;1.00;99.90
10722;DHT22;5412;59.450;18.124;2022-12-05T07:08:57;1.10;99.90
10722;DHT22;5412;59.450;18.124;2022-12-05T07:11:22;1.00;99.90
10722;DHT22;5412;59.450;18.124;2022-12-05T07:13:48;1.10;99.90
10722;DHT22;5412;59.450;18.124;2022-12-05T07:16:14;1.20;99.90
10722;DHT22;5412;59.450;18.124;2022-12-05T07:18:40;1.20;99.90
10722;DHT22;5412;59.450;18.124;2022-12-05T07:21:08;1.20;99.90
10722;DHT22;5412;59.450;18.124;2022-12-05T07:23:35;1.30;99.90
10722;DHT22;5412;59.450;18.124;2022-12-05T07:26:21;1.20;99.90
10722;DHT22;5412;59.450;18.124;2022-12-05T07:28:48;1.10;99.90
10722;DHT22;5412;59.450;18.124;2022-12-05T07:31:18;1.20;99.90
10722;DHT22;5412;59.450;18.124;2022-12-05T07:33:43;1.10;99.90
10722;DHT22;5412;59.450;18.124;2022-12-05T07:36:18;0.90;99.90
10722;DHT22;5412;59.450;18.124;2022-12-05T07:38:45;0.80;99.90
10722;DHT22;5412;59.450;18.124;2022-12-05T07:41:22;0.90;99.90
10722;DHT22;5412;59.450;18.124;2022-12-05T07:43:50;0.90;99.90
10722;DHT22;5412;59.450;18.124;2022-12-05T07:46:16;1.00;99.90
10722;DHT22;5412;59.450;18.124;2022-12-05T07:48:42;1.00;99.90
10722;DHT22;5412;59.450;18.124;2022-12-05T07:51:09;1.00;99.90
10722;DHT22;5412;59.450;18.124;2022-12-05T07:53:35;0.70;99.90
10722;DHT22;5412;59.450;18.124;2022-12-05T07:56:04;0.60;99.90
10722;DHT22;5412;59.450;18.124;2022-12-05T07:58:31;0.80;99.90
10722;DHT22;5412;59.450;18.124;2022-12-05T08:01:08;0.80;99.90
10722;DHT22;5412;59.450;18.124;2022-12-05T08:03:35;0.50;99.90
10722;DHT22;5412;59.450;18.124;2022-12-05T08:06:09;0.70;99.90
10722;DHT22;5412;59.450;18.124;2022-12-05T08:08:35;0.90;99.90
10722;DHT22;5412;59.450;18.124;2022-12-05T08:11:06;1.00;99.90
10722;DHT22;5412;59.450;18.124;2022-12-05T08:13:33;1.00;99.90
10722;DHT22;5412;59.450;18.124;2022-12-05T08:16:09;0.80;99.90
10722;DHT22;5412;59.450;18.124;2022-12-05T08:18:35;0.70;99.90
10722;DHT22;5412;59.450;18.124;2022-12-05T08:21:05;0.80;99.90
10722;DHT22;5412;59.450;18.124;2022-12-05T08:23:32;0.80;99.90
10722;DHT22;5412;59.450;18.124;2022-12-05T08:26:11;0.90;99.90
10722;DHT22;5412;59.450;18.124;2022-12-05T08:28:38;1.00;99.90
10722;DHT22;5412;59.450;18.124;2022-12-05T08:31:06;1.10;99.90
10722;DHT22;5412;59.450;18.124;2022-12-05T08:33:33;1.20;99.90
10722;DHT22;5412;59.450;18.124;2022-12-05T08:36:03;1.20;99.90
10722;DHT22;5412;59.450;18.124;2022-12-05T08:38:29;0.30;99.90
10722;DHT22;5412;59.450;18.124;2022-12-05T08:40:55;1.30;99.90
10722;DHT22;5412;59.450;18.124;2022-12-05T08:43:20;1.40;99.90
10722;DHT22;5412;59.450;18.124;2022-12-05T08:45:50;1.50;99.90
10722;DHT22;5412;59.450;18.124;2022-12-05T08:48:16;1.30;99.90
10722;DHT22;5412;59.450;18.124;2022-12-05T08:50:45;1.40;99.90
10722;DHT22;5412;59.450;18.124;2022-12-05T08:53:11;1.40;99.90
10722;DHT22;5412;59.450;18.124;2022-12-05T08:55:37;1.50;99.90
10722;DHT22;5412;59.450;18.124;2022-12-05T08:58:03;1.60;99.90
10722;DHT22;5412;59.450;18.124;2022-12-05T09:00:29;1.50;99.90
10722;DHT22;5412;59.450;18.124;2022-12-05T09:02:54;1.40;99.90
10722;DHT22;5412;59.450;18.124;2022-12-05T09:05:21;1.40;99.90
10722;DHT22;5412;59.450;18.124;2022-12-05T09:07:47;1.50;99.90
10722;DHT22;5412;59.450;18.124;2022-12-05T09:10:13;1.30;99.90
10722;DHT22;5412;59.450;18.124;2022-12-05T09:12:38;1.30;99.90
10722;DHT22;5412;59.450;18.124;2022-12-05T09:15:08;1.40;99.90
10722;DHT22;5412;59.450;18.124;2022-12-05T09:17:34;1.50;99.90
10722;DHT22;5412;59.450;18.124;2022-12-05T09:20:00;1.60;99.90
10722;DHT22;5412;59.450;18.124;2022-12-05T09:22:25;1.60;99.90
10722;DHT22;5412;59.450;18.124;2022-12-05T09:24:51;1.70;99.90
10722;DHT22;5412;59.450;18.124;2022-12-05T09:27:17;1.80;99.90
10722;DHT22;5412;59.450;18.124;2022-12-05T09:29:43;1.90;99.90
10722;DHT22;5412;59.450;18.124;2022-12-05T09:32:09;2.00;99.90
10722;DHT22;5412;59.450;18.124;2022-12-05T09:34:36;1.80;99.90
10722;DHT22;5412;59.450;18.124;2022-12-05T09:37:06;1.80;99.90
10722;DHT22;5412;59.450;18.124;2022-12-05T09:39:32;1.80;99.90
10722;DHT22;5412;59.450;18.124;2022-12-05T09:42:28;2.00;99.90
10722;DHT22;5412;59.450;18.124;2022-12-05T09:45:28;2.10;99.90
10722;DHT22;5412;59.450;18.124;2022-12-05T09:50:39;2.00;99.90
10722;DHT22;5412;59.450;18.124;2022-12-05T09:55:39;2.10;99.90
10722;DHT22;5412;59.450;18.124;2022-12-05T09:58:27;2.10;99.90
10722;DHT22;5412;59.450;18.124;2022-12-05T10:12:38;2.10;99.90
10722;DHT22;5412;59.450;18.124;2022-12-05T10:15:21;1.90;99.90
10722;DHT22;5412;59.450;18.124;2022-12-05T10:20:30;2.00;99.90
10722;DHT22;5412;59.450;18.124;2022-12-05T10:23:05;1.90;99.90
10722;DHT22;5412;59.450;18.124;2022-12-05T10:25:36;2.00;99.90
10722;DHT22;5412;59.450;18.124;2022-12-05T10:28:10;2.10;99.90
10722;DHT22;5412;59.450;18.124;2022-12-05T10:30:39;2.00;99.90
10722;DHT22;5412;59.450;18.124;2022-12-05T10:33:22;1.90;99.90
10722;DHT22;5412;59.450;18.124;2022-12-05T10:35:48;1.90;99.90
10722;DHT22;5412;59.450;18.124;2022-12-05T10:38:28;1.70;99.90
10722;DHT22;5412;59.450;18.124;2022-12-05T10:40:58;1.70;99.90
10722;DHT22;5412;59.450;18.124;2022-12-05T10:43:30;1.80;99.90
10722;DHT22;5412;59.450;18.124;2022-12-05T10:45:58;1.90;99.90
10722;DHT22;5412;59.450;18.124;2022-12-05T10:48:25;2.00;99.90
10722;DHT22;5412;59.450;18.124;2022-12-05T10:50:53;2.00;99.90
10722;DHT22;5412;59.450;18.124;2022-12-05T10:55:53;2.00;99.90
10722;DHT22;5412;59.450;18.124;2022-12-05T10:58:24;2.00;99.90
10722;DHT22;5412;59.450;18.124;2022-12-05T11:00:56;2.00;99.90
10722;DHT22;5412;59.450;18.124;2022-12-05T11:03:29;2.00;99.90
10722;DHT22;5412;59.450;18.124;2022-12-05T11:05:57;2.10;99.90
10722;DHT22;5412;59.450;18.124;2022-12-05T11:08:26;2.20;99.90
10722;DHT22;5412;59.450;18.124;2022-12-05T11:11:29;2.10;99.90
10722;DHT22;5412;59.450;18.124;2022-12-05T11:14:00;2.20;99.90
10722;DHT22;5412;59.450;18.124;2022-12-05T11:16:36;2.20;99.90
10722;DHT22;5412;59.450;18.124;2022-12-05T11:21:49;2.40;99.90
10722;DHT22;5412;59.450;18.124;2022-12-05T11:24:28;2.30;99.90
10722;DHT22;5412;59.450;18.124;2022-12-05T11:26:56;2.30;99.90
10722;DHT22;5412;59.450;18.124;2022-12-05T11:29:36;2.00;99.90
10722;DHT22;5412;59.450;18.124;2022-12-05T11:32:04;2.10;99.90
10722;DHT22;5412;59.450;18.124;2022-12-05T11:34:50;2.30;99.90
10722;DHT22;5412;59.450;18.124;2022-12-05T11:37:23;2.30;99.90
10722;DHT22;5412;59.450;18.124;2022-12-05T11:39:50;2.00;99.90
10722;DHT22;5412;59.450;18.124;2022-12-05T11:58:09;2.30;99.90
10722;DHT22;5412;59.450;18.124;2022-12-05T12:01:07;2.40;99.90
10722;DHT22;5412;59.450;18.124;2022-12-05T12:14:19;2.50;99.90
10722;DHT22;5412;59.450;18.124;2022-12-05T12:17:08;2.50;99.90
10722;DHT22;5412;59.450;18.124;2022-12-05T12:24:51;2.20;99.90
10722;DHT22;5412;59.450;18.124;2022-12-05T12:30:39;2.40;99.90
10722;DHT22;5412;59.450;18.124;2022-12-05T12:33:29;2.30;99.90
10722;DHT22;5412;59.450;18.124;2022-12-05T12:41:12;2.30;99.90
10722;DHT22;5412;59.450;18.124;2022-12-05T12:46:36;2.30;99.90
10722;DHT22;5412;59.450;18.124;2022-12-05T12:49:13;2.30;99.90
10722;DHT22;5412;59.450;18.124;2022-12-05T12:51:53;2.30;99.90
10722;DHT22;5412;59.450;18.124;2022-12-05T12:57:15;2.40;99.90
10722;DHT22;5412;59.450;18.124;2022-12-05T13:00:10;2.40;99.90
10722;DHT22;5412;59.450;18.124;2022-12-05T13:02:44;2.40;99.90
10722;DHT22;5412;59.450;18.124;2022-12-05T13:05:54;2.40;99.90
10722;DHT22;5412;59.450;18.124;2022-12-05T13:08:29;2.20;99.90
10722;DHT22;5412;59.450;18.124;2022-12-05T13:10:59;2.40;99.90
10722;DHT22;5412;59.450;18.124;2022-12-05T13:13:35;2.40;99.90
10722;DHT22;5412;59.450;18.124;2022-12-05T13:16:04;2.30;99.90
10722;DHT22;5412;59.450;18.124;2022-12-05T13:18:33;2.40;99.90
10722;DHT22;5412;59.450;18.124;2022-12-05T13:21:02;2.30;99.90
10722;DHT22;5412;59.450;18.124;2022-12-05T13:23:34;2.30;99.90
10722;DHT22;5412;59.450;18.124;2022-12-05T13:26:07;2.30;99.90
10722;DHT22;5412;59.450;18.124;2022-12-05T13:28:58;2.10;99.90
10722;DHT22;5412;59.450;18.124;2022-12-05T13:34:05;2.10;99.90
10722;DHT22;5412;59.450;18.124;2022-12-05T13:36:48;2.00;99.90
10722;DHT22;5412;59.450;18.124;2022-12-05T13:39:32;2.10;99.90
10722;DHT22;5412;59.450;18.124;2022-12-05T13:42:23;2.20;99.90
10722;DHT22;5412;59.450;18.124;2022-12-05T13:50:06;2.30;99.90
10722;DHT22;5412;59.450;18.124;2022-12-05T13:52:52;2.40;99.90
10722;DHT22;5412;59.450;18.124;2022-12-05T13:57:53;2.40;99.90
10722;DHT22;5412;59.450;18.124;2022-12-05T14:00:23;2.50;99.90
10722;DHT22;5412;59.450;18.124;2022-12-05T14:03:03;2.50;99.90
10722;DHT22;5412;59.450;18.124;2022-12-05T14:05:39;2.60;99.90
10722;DHT22;5412;59.450;18.124;2022-12-05T14:15:48;2.60;99.90
10722;DHT22;5412;59.450;18.124;2022-12-05T14:18:19;2.60;99.90
10722;DHT22;5412;59.450;18.124;2022-12-05T14:20:57;2.50;99.90
10722;DHT22;5412;59.450;18.124;2022-12-05T14:34:23;2.30;99.90
10722;DHT22;5412;59.450;18.124;2022-12-05T14:37:06;2.30;99.90
10722;DHT22;5412;59.450;18.124;2022-12-05T14:39:41;2.20;99.90
10722;DHT22;5412;59.450;18.124;2022-12-05T14:44:58;2.20;99.90
10722;DHT22;5412;59.450;18.124;2022-12-05T14:47:27;2.10;99.90
10722;DHT22;5412;59.450;18.124;2022-12-05T14:52:28;2.10;99.90
10722;DHT22;5412;59.450;18.124;2022-12-05T14:55:00;2.10;99.90
10722;DHT22;5412;59.450;18.124;2022-12-05T14:57:27;2.10;99.90
10722;DHT22;5412;59.450;18.124;2022-12-05T15:00:04;2.10;99.90
10722;DHT22;5412;59.450;18.124;2022-12-05T15:02:33;2.10;99.90
10722;DHT22;5412;59.450;18.124;2022-12-05T15:05:21;2.10;99.90
10722;DHT22;5412;59.450;18.124;2022-12-05T15:07:49;2.10;99.90
10722;DHT22;5412;59.450;18.124;2022-12-05T15:10:28;2.10;99.90
10722;DHT22;5412;59.450;18.124;2022-12-05T15:13:02;2.20;99.90
10722;DHT22;5412;59.450;18.124;2022-12-05T15:18:33;2.40;99.90
10722;DHT22;5412;59.450;18.124;2022-12-05T15:21:35;2.40;99.90
10722;DHT22;5412;59.450;18.124;2022-12-05T15:24:04;2.40;99.90
10722;DHT22;5412;59.450;18.124;2022-12-05T15:26:56;2.40;99.90
10722;DHT22;5412;59.450;18.124;2022-12-05T15:29:25;2.50;99.90
10722;DHT22;5412;59.450;18.124;2022-12-05T15:32:12;2.50;99.90
10722;DHT22;5412;59.450;18.124;2022-12-05T15:37:31;2.50;99.90
10722;DHT22;5412;59.450;18.124;2022-12-05T15:40:09;2.50;99.90
10722;DHT22;5412;59.450;18.124;2022-12-05T15:42:43;2.50;99.90
10722;DHT22;5412;59.450;18.124;2022-12-05T15:45:14;2.50;99.90
10722;DHT22;5412;59.450;18.124;2022-12-05T15:47:46;2.50;99.90
10722;DHT22;5412;59.450;18.124;2022-12-05T15:50:41;2.50;99.90
10722;DHT22;5412;59.450;18.124;2022-12-05T15:53:15;2.60;99.90
10722;DHT22;5412;59.450;18.124;2022-12-05T15:58:24;2.60;99.90
10722;DHT22;5412;59.450;18.124;2022-12-05T16:00:55;2.60;99.90
10722;DHT22;5412;59.450;18.124;2022-12-05T16:03:44;2.60;99.90
10722;DHT22;5412;59.450;18.124;2022-12-05T16:08:56;2.60;99.90
10722;DHT22;5412;59.450;18.124;2022-12-05T16:11:22;2.60;99.90
10722;DHT22;5412;59.450;18.124;2022-12-05T16:13:55;2.60;99.90
10722;DHT22;5412;59.450;18.124;2022-12-05T16:16:25;2.60;99.90
10722;DHT22;5412;59.450;18.124;2022-12-05T16:18:53;2.60;99.90
10722;DHT22;5412;59.450;18.124;2022-12-05T16:24:20;2.70;99.90
10722;DHT22;5412;59.450;18.124;2022-12-05T16:27:02;2.70;99.90
10722;DHT22;5412;59.450;18.124;2022-12-05T16:29:31;2.60;99.90
10722;DHT22;5412;59.450;18.124;2022-12-05T16:31:59;2.70;99.90
10722;DHT22;5412;59.450;18.124;2022-12-05T16:34:27;2.70;99.90
10722;DHT22;5412;59.450;18.124;2022-12-05T16:36:54;2.70;99.90
10722;DHT22;5412;59.450;18.124;2022-12-05T16:39:21;2.70;99.90
10722;DHT22;5412;59.450;18.124;2022-12-05T16:41:47;2.70;99.90
10722;DHT22;5412;59.450;18.124;2022-12-05T16:46:53;2.40;99.90
10722;DHT22;5412;59.450;18.124;2022-12-05T16:54:36;2.70;99.90
10722;DHT22;5412;59.450;18.124;2022-12-05T16:57:02;2.70;99.90
10722;DHT22;5412;59.450;18.124;2022-12-05T16:59:36;2.70;99.90
10722;DHT22;5412;59.450;18.124;2022-12-05T17:02:05;2.70;99.90
10722;DHT22;5412;59.450;18.124;2022-12-05T17:04:31;2.70;99.90
10722;DHT22;5412;59.450;18.124;2022-12-05T17:06:58;2.70;99.90
10722;DHT22;5412;59.450;18.124;2022-12-05T17:09:23;2.70;99.90
10722;DHT22;5412;59.450;18.124;2022-12-05T17:11:53;2.70;99.90
10722;DHT22;5412;59.450;18.124;2022-12-05T17:14:21;2.70;99.90
10722;DHT22;5412;59.450;18.124;2022-12-05T17:16:47;2.70;99.90
10722;DHT22;5412;59.450;18.124;2022-12-05T17:19:13;2.80;99.90
10722;DHT22;5412;59.450;18.124;2022-12-05T17:21:40;2.80;99.90
10722;DHT22;5412;59.450;18.124;2022-12-05T17:24:14;2.80;99.90
10722;DHT22;5412;59.450;18.124;2022-12-05T17:26:40;2.70;99.90
10722;DHT22;5412;59.450;18.124;2022-12-05T17:29:06;2.70;99.90
10722;DHT22;5412;59.450;18.124;2022-12-05T17:31:33;2.80;99.90
10722;DHT22;5412;59.450;18.124;2022-12-05T17:33:58;2.80;99.90
10722;DHT22;5412;59.450;18.124;2022-12-05T17:36:24;3.20;99.90
10722;DHT22;5412;59.450;18.124;2022-12-05T17:38:50;2.80;99.90
10722;DHT22;5412;59.450;18.124;2022-12-05T17:41:18;2.80;99.90
10722;DHT22;5412;59.450;18.124;2022-12-05T17:43:44;2.80;99.90
10722;DHT22;5412;59.450;18.124;2022-12-05T17:46:15;2.80;99.90
10722;DHT22;5412;59.450;18.124;2022-12-05T17:48:41;3.00;99.90
10722;DHT22;5412;59.450;18.124;2022-12-05T17:51:08;2.70;99.90
10722;DHT22;5412;59.450;18.124;2022-12-05T17:53:36;2.70;99.90
10722;DHT22;5412;59.450;18.124;2022-12-05T17:56:03;2.70;99.90
10722;DHT22;5412;59.450;18.124;2022-12-05T17:58:29;2.70;99.90
10722;DHT22;5412;59.450;18.124;2022-12-05T18:00:55;2.70;99.90
10722;DHT22;5412;59.450;18.124;2022-12-05T18:03:21;2.70;99.90
10722;DHT22;5412;59.450;18.124;2022-12-05T18:05:47;2.60;99.90
10722;DHT22;5412;59.450;18.124;2022-12-05T18:08:13;2.70;99.90
10722;DHT22;5412;59.450;18.124;2022-12-05T18:10:44;2.60;99.90
10722;DHT22;5412;59.450;18.124;2022-12-05T18:13:11;2.60;99.90
10722;DHT22;5412;59.450;18.124;2022-12-05T18:15:41;2.60;99.90
10722;DHT22;5412;59.450;18.124;2022-12-05T18:18:08;2.60;99.90
10722;DHT22;5412;59.450;18.124;2022-12-05T18:20:35;2.60;99.90
10722;DHT22;5412;59.450;18.124;2022-12-05T18:23:01;2.60;99.90
10722;DHT22;5412;59.450;18.124;2022-12-05T18:25:28;2.60;99.90
10722;DHT22;5412;59.450;18.124;2022-12-05T18:27:57;2.60;99.90
10722;DHT22;5412;59.450;18.124;2022-12-05T18:30:22;2.60;99.90
10722;DHT22;5412;59.450;18.124;2022-12-05T18:32:48;2.60;99.90
10722;DHT22;5412;59.450;18.124;2022-12-05T18:35:14;2.50;99.90
10722;DHT22;5412;59.450;18.124;2022-12-05T18:37:40;2.50;99.90
10722;DHT22;5412;59.450;18.124;2022-12-05T18:40:07;2.40;99.90
10722;DHT22;5412;59.450;18.124;2022-12-05T18:42:34;2.40;99.90
10722;DHT22;5412;59.450;18.124;2022-12-05T18:45:00;2.50;99.90
10722;DHT22;5412;59.450;18.124;2022-12-05T18:47:26;2.60;99.90
10722;DHT22;5412;59.450;18.124;2022-12-05T18:49:52;2.70;99.90
10722;DHT22;5412;59.450;18.124;2022-12-05T18:52:18;2.70;99.90
10722;DHT22;5412;59.450;18.124;2022-12-05T18:54:43;2.70;99.90
10722;DHT22;5412;59.450;18.124;2022-12-05T18:57:09;2.60;99.90
10722;DHT22;5412;59.450;18.124;2022-12-05T18:59:35;2.70;99.90
10722;DHT22;5412;59.450;18.124;2022-12-05T19:02:01;2.60;99.90